createdAt,value
2018-08-07T00:00:12.142Z,45.79
2018-08-07T00:03:15.427Z,46.18
2018-08-07T00:06:18.723Z,46.00
2018-08-07T00:09:21.991Z,46.93
2018-08-07T00:12:25.316Z,48.22
2018-08-07T00:15:28.823Z,49.20
2018-08-07T00:18:32.224Z,49.92
2018-08-07T00:21:35.526Z,50.10
2018-08-07T00:24:39.892Z,49.38
2018-08-07T00:27:43.544Z,49.17
2018-08-07T00:30:46.850Z,47.92
2018-08-07T00:33:49.991Z,47.22
2018-08-07T00:36:54.214Z,46.16
2018-08-07T00:39:57.532Z,46.26
2018-08-07T00:43:00.808Z,46.43
2018-08-07T00:46:04.047Z,45.83
2018-08-07T00:49:08.339Z,45.79
2018-08-07T00:52:12.546Z,45.60
2018-08-07T00:55:16.492Z,45.86
2018-08-07T00:58:19.768Z,46.25
2018-08-07T01:01:23.085Z,46.21
2018-08-07T01:04:26.251Z,46.22
2018-08-07T01:07:29.582Z,46.54
2018-08-07T01:10:32.881Z,46.34
2018-08-07T01:13:36.895Z,46.50
2018-08-07T01:16:40.167Z,46.58
2018-08-07T01:19:43.492Z,46.61
2018-08-07T01:22:46.752Z,46.06
2018-08-07T01:25:50.282Z,46.92
2018-08-07T01:28:53.562Z,46.42
2018-08-07T01:31:58.816Z,46.44
2018-08-07T01:35:02.111Z,47.19
2018-08-07T01:38:05.409Z,47.09
2018-08-07T01:41:09.623Z,46.60
2018-08-07T01:44:12.950Z,46.56
2018-08-07T01:47:16.217Z,46.05
2018-08-07T01:50:19.828Z,46.62
2018-08-07T01:53:25.098Z,46.26
2018-08-07T01:56:28.383Z,46.58
2018-08-07T01:59:31.668Z,46.74
2018-08-07T02:02:34.988Z,46.89
2018-08-07T02:05:39.488Z,46.95
2018-08-07T02:08:42.777Z,46.66
2018-08-07T02:11:46.085Z,46.71
2018-08-07T02:14:49.372Z,46.64
2018-08-07T02:17:52.581Z,46.94
2018-08-07T02:20:55.862Z,46.67
2018-08-07T02:23:59.158Z,47.13
2018-08-07T02:27:02.368Z,47.41
2018-08-07T02:30:06.820Z,47.92
2018-08-07T02:33:10.088Z,48.10
2018-08-07T02:36:13.466Z,48.00
2018-08-07T02:39:16.793Z,47.75
2018-08-07T02:42:20.109Z,47.94
2018-08-07T02:45:23.408Z,47.80
2018-08-07T02:48:26.662Z,47.95
2018-08-07T02:51:29.859Z,48.45
2018-08-07T02:54:33.175Z,47.88
2018-08-07T02:57:36.934Z,48.66
2018-08-07T03:00:42.349Z,48.93
2018-08-07T03:03:45.629Z,49.02
2018-08-07T03:06:48.911Z,49.59
2018-08-07T03:09:52.082Z,49.54
2018-08-07T03:12:55.752Z,50.06
2018-08-07T03:15:59.020Z,49.84
2018-08-07T03:19:02.252Z,50.16
2018-08-07T03:22:05.595Z,49.73
2018-08-07T03:25:11.688Z,50.64
2018-08-07T03:28:14.955Z,50.83
2018-08-07T03:31:18.280Z,50.61
2018-08-07T03:34:21.581Z,51.01
2018-08-07T03:37:24.948Z,51.36
2018-08-07T03:40:29.169Z,51.74
2018-08-07T03:43:32.389Z,51.72
2018-08-07T03:46:35.839Z,51.37
2018-08-07T03:49:39.767Z,51.46
2018-08-07T03:52:43.104Z,51.11
2018-08-07T03:55:46.396Z,50.77
2018-08-07T03:58:49.732Z,51.28
2018-08-07T04:01:53.125Z,50.52
2018-08-07T04:04:56.324Z,50.27
2018-08-07T04:07:59.470Z,51.03
2018-08-07T04:11:09.154Z,51.26
2018-08-07T04:14:12.558Z,51.19
2018-08-07T04:17:15.862Z,51.18
2018-08-07T04:20:21.054Z,51.19
2018-08-07T04:23:24.266Z,51.10
2018-08-07T04:26:27.594Z,51.92
2018-08-07T04:29:30.888Z,52.55
2018-08-07T04:32:34.296Z,52.59
2018-08-07T04:35:38.699Z,52.12
2018-08-07T04:38:41.995Z,52.52
2018-08-07T04:41:45.288Z,53.40
2018-08-07T04:44:48.484Z,53.22
2018-08-07T04:47:51.829Z,52.92
2018-08-07T04:50:55.208Z,53.73
2018-08-07T04:53:58.478Z,53.44
2018-08-07T04:57:01.779Z,52.85
2018-08-07T05:00:12.764Z,53.50
2018-08-07T05:03:16.055Z,53.45
2018-08-07T05:06:19.435Z,54.06
2018-08-07T05:09:22.743Z,53.46
2018-08-07T05:12:26.154Z,54.19
2018-08-07T05:15:29.443Z,54.19
2018-08-07T05:18:33.055Z,53.94
2018-08-07T05:21:39.375Z,53.84
2018-08-07T05:24:42.688Z,53.76
2018-08-07T05:27:45.911Z,53.95
2018-08-07T05:30:49.206Z,53.55
2018-08-07T05:33:52.503Z,53.62
2018-08-07T05:36:55.690Z,53.46
2018-08-07T05:39:58.999Z,53.93
2018-08-07T05:43:02.340Z,53.39
2018-08-07T05:46:06.097Z,53.78
2018-08-07T05:49:09.629Z,52.83
2018-08-07T05:52:13.935Z,53.50
2018-08-07T05:55:17.223Z,53.46
2018-08-07T05:58:20.412Z,53.59
2018-08-07T06:01:23.752Z,52.87
2018-08-07T06:04:27.038Z,52.36
2018-08-07T06:07:30.288Z,52.48
2018-08-07T06:10:33.637Z,52.58
2018-08-07T06:13:36.932Z,52.40
2018-08-07T06:16:40.312Z,52.22
2018-08-07T06:19:43.635Z,51.89
2018-08-07T06:22:48.675Z,51.98
2018-08-07T06:25:51.964Z,51.51
2018-08-07T06:28:55.269Z,50.99
2018-08-07T06:31:58.451Z,50.50
2018-08-07T06:35:02.855Z,50.57
2018-08-07T06:38:06.504Z,50.31
2018-08-07T06:41:09.669Z,50.70
2018-08-07T06:44:12.971Z,50.13
2018-08-07T06:47:18.741Z,49.73
2018-08-07T06:50:22.034Z,49.31
2018-08-07T06:53:25.318Z,49.42
2018-08-07T06:56:34.035Z,49.05
2018-08-07T06:59:37.336Z,48.50
2018-08-07T07:02:44.043Z,48.18
2018-08-07T07:05:48.771Z,47.89
2018-08-07T07:08:52.040Z,47.67
2018-08-07T07:11:55.167Z,47.90
2018-08-07T07:14:58.415Z,47.41
2018-08-07T07:18:01.777Z,47.19
2018-08-07T07:21:08.311Z,47.18
2018-08-07T07:24:11.596Z,46.90
2018-08-07T07:27:14.866Z,46.79
2018-08-07T07:30:20.543Z,46.68
2018-08-07T07:33:23.863Z,46.26
2018-08-07T07:36:27.115Z,45.77
2018-08-07T07:39:30.491Z,45.69
2018-08-07T07:42:33.856Z,46.00
2018-08-07T07:45:37.090Z,45.44
2018-08-07T07:48:41.539Z,45.30
2018-08-07T07:51:44.845Z,43.50
2018-08-07T07:54:48.046Z,43.82
2018-08-07T07:57:51.312Z,44.40
2018-08-07T08:00:54.626Z,43.88
2018-08-07T08:03:58.266Z,44.28
2018-08-07T08:07:01.671Z,43.92
2018-08-07T08:10:06.499Z,44.24
2018-08-07T08:13:10.598Z,43.79
2018-08-07T08:16:13.869Z,43.35
2018-08-07T08:19:17.078Z,43.29
2018-08-07T08:22:20.347Z,42.99
2018-08-07T08:25:23.563Z,42.52
2018-08-07T08:28:26.888Z,42.14
2018-08-07T08:31:30.151Z,41.46
2018-08-07T08:34:33.475Z,41.74
2018-08-07T08:37:37.176Z,41.40
2018-08-07T08:40:41.508Z,41.08
2018-08-07T08:43:44.799Z,40.86
2018-08-07T08:46:48.106Z,41.01
2018-08-07T08:49:52.364Z,40.48
2018-08-07T08:52:55.615Z,40.77
2018-08-07T08:55:58.913Z,40.43
2018-08-07T08:59:02.212Z,39.45
2018-08-07T09:02:05.643Z,38.82
2018-08-07T09:05:10.327Z,39.04
2018-08-07T09:08:14.657Z,39.39
2018-08-07T09:11:17.969Z,39.04
2018-08-07T09:14:21.878Z,38.62
2018-08-07T09:17:25.146Z,37.16
2018-08-07T09:20:29.892Z,35.55
2018-08-07T09:23:33.147Z,35.21
2018-08-07T09:26:36.620Z,35.48
2018-08-07T09:29:39.803Z,35.94
2018-08-07T09:32:43.192Z,35.83
2018-08-07T09:35:46.493Z,34.32
2018-08-07T09:38:49.734Z,34.25
2018-08-07T09:41:52.867Z,34.14
2018-08-07T09:44:56.140Z,33.60
2018-08-07T09:47:59.943Z,33.35
2018-08-07T09:51:03.210Z,32.97
2018-08-07T09:54:06.487Z,33.78
2018-08-07T09:57:09.891Z,33.35
2018-08-07T10:00:20.822Z,32.99
2018-08-07T10:03:25.139Z,32.89
2018-08-07T10:06:28.480Z,32.70
2018-08-07T10:09:31.619Z,32.58
2018-08-07T10:12:34.976Z,32.67
2018-08-07T10:15:38.214Z,32.53
2018-08-07T10:18:42.565Z,32.83
2018-08-07T10:21:45.823Z,31.64
2018-08-07T10:24:49.200Z,32.38
2018-08-07T10:27:52.446Z,32.22
2018-08-07T10:30:56.768Z,31.67
2018-08-07T10:34:00.021Z,32.07
2018-08-07T10:37:03.279Z,31.58
2018-08-07T10:40:08.456Z,30.86
2018-08-07T10:43:12.649Z,30.97
2018-08-07T10:46:15.763Z,31.54
2018-08-07T10:49:19.120Z,31.85
2018-08-07T10:52:22.358Z,31.48
2018-08-07T10:55:26.055Z,30.65
2018-08-07T10:58:29.300Z,30.61
2018-08-07T11:01:32.619Z,30.40
2018-08-07T11:04:35.895Z,30.24
2018-08-07T11:07:39.142Z,30.10
2018-08-07T11:10:43.962Z,30.21
2018-08-07T11:13:47.273Z,29.77
2018-08-07T11:16:50.678Z,29.96
2018-08-07T11:19:54.580Z,30.59
2018-08-07T11:22:59.021Z,30.47
2018-08-07T11:26:02.412Z,30.60
2018-08-07T11:29:05.915Z,31.30
2018-08-07T11:32:11.155Z,30.45
2018-08-07T11:35:14.885Z,29.15
2018-08-07T11:38:18.153Z,28.83
2018-08-07T11:41:21.514Z,28.26
2018-08-07T11:44:24.850Z,27.98
2018-08-07T11:47:28.046Z,27.86
2018-08-07T11:50:32.481Z,27.96
2018-08-07T11:53:35.606Z,28.11
2018-08-07T11:56:38.912Z,27.92
2018-08-07T11:59:42.866Z,27.76
2018-08-07T12:02:46.468Z,27.70
2018-08-07T12:05:49.751Z,28.04
2018-08-07T12:08:52.956Z,28.42
2018-08-07T12:11:56.252Z,28.43
2018-08-07T12:14:59.672Z,28.19
2018-08-07T12:18:02.928Z,28.30
2018-08-07T12:21:06.142Z,27.29
2018-08-07T12:24:09.487Z,27.30
2018-08-07T12:27:14.039Z,27.33
2018-08-07T12:30:26.507Z,27.71
2018-08-07T12:33:29.803Z,27.41
2018-08-07T12:36:33.098Z,27.35
2018-08-07T12:39:36.233Z,27.18
2018-08-07T12:42:39.693Z,27.56
2018-08-07T12:45:43.043Z,27.46
2018-08-07T12:48:46.356Z,27.00
2018-08-07T12:51:50.683Z,27.86
2018-08-07T12:54:53.967Z,28.41
2018-08-07T12:57:57.252Z,28.35
2018-08-07T13:01:01.591Z,28.60
2018-08-07T13:04:04.899Z,29.05
2018-08-07T13:07:08.096Z,28.71
2018-08-07T13:10:13.049Z,28.91
2018-08-07T13:13:16.371Z,28.86
2018-08-07T13:16:19.624Z,29.27
2018-08-07T13:19:22.821Z,29.30
2018-08-07T13:22:26.308Z,29.20
2018-08-07T13:25:29.682Z,29.01
2018-08-07T13:28:33.048Z,29.15
2018-08-07T13:31:36.470Z,29.44
2018-08-07T13:34:39.829Z,29.59
2018-08-07T13:37:45.297Z,29.79
2018-08-07T13:40:48.567Z,29.83
2018-08-07T13:43:51.847Z,29.81
2018-08-07T13:46:55.154Z,29.42
2018-08-07T13:49:58.471Z,29.12
2018-08-07T13:53:01.776Z,29.25
2018-08-07T13:56:05.099Z,29.50
2018-08-07T13:59:08.353Z,29.54
2018-08-07T14:02:12.347Z,29.35
2018-08-07T14:05:16.623Z,29.83
2018-08-07T14:08:19.869Z,29.92
2018-08-07T14:11:23.059Z,30.41
2018-08-07T14:14:26.371Z,30.55
2018-08-07T14:17:36.159Z,30.84
2018-08-07T14:20:39.545Z,30.11
2018-08-07T14:23:43.842Z,29.80
2018-08-07T14:26:47.167Z,29.95
2018-08-07T14:29:50.519Z,29.73
2018-08-07T14:32:53.895Z,30.07
2018-08-07T14:35:57.265Z,29.57
2018-08-07T14:39:00.444Z,29.70
2018-08-07T14:42:03.811Z,29.96
2018-08-07T14:45:07.163Z,30.10
2018-08-07T14:48:10.425Z,30.36
2018-08-07T14:51:13.725Z,30.09
2018-08-07T14:54:17.035Z,30.30
2018-08-07T14:57:20.358Z,30.68
2018-08-07T15:00:27.995Z,29.90
2018-08-07T15:03:31.750Z,29.18
2018-08-07T15:06:35.059Z,29.54
2018-08-07T15:09:38.458Z,29.11
2018-08-07T15:12:43.034Z,29.14
2018-08-07T15:15:46.259Z,29.30
2018-08-07T15:18:49.427Z,29.20
2018-08-07T15:21:53.013Z,29.07
2018-08-07T15:24:56.249Z,28.88
2018-08-07T15:27:59.585Z,29.06
2018-08-07T15:31:02.774Z,29.20
2018-08-07T15:34:05.924Z,29.30
2018-08-07T15:37:09.259Z,29.63
2018-08-07T15:40:13.675Z,29.32
2018-08-07T15:43:16.960Z,29.72
2018-08-07T15:46:20.280Z,29.31
2018-08-07T15:49:23.583Z,28.99
2018-08-07T15:52:26.800Z,28.55
2018-08-07T15:55:30.146Z,28.13
2018-08-07T15:58:33.479Z,27.36
2018-08-07T16:01:36.758Z,25.85
2018-08-07T16:04:40.982Z,25.25
2018-08-07T16:07:44.433Z,25.35
2018-08-07T16:10:47.800Z,25.49
2018-08-07T16:13:51.055Z,25.00
2018-08-07T16:16:54.360Z,24.37
2018-08-07T16:19:57.859Z,24.79
2018-08-07T16:23:01.200Z,24.67
2018-08-07T16:26:04.660Z,25.16
2018-08-07T16:29:08.159Z,25.17
2018-08-07T16:32:11.935Z,24.60
2018-08-07T16:35:16.116Z,24.81
2018-08-07T16:38:19.407Z,24.36
2018-08-07T16:41:22.720Z,24.38
2018-08-07T16:44:25.953Z,24.15
2018-08-07T16:47:30.384Z,23.99
2018-08-07T16:50:33.803Z,24.24
2018-08-07T16:53:37.121Z,24.18
2018-08-07T16:56:41.135Z,24.29
2018-08-07T16:59:44.413Z,24.43
2018-08-07T17:02:47.595Z,24.50
2018-08-07T17:05:50.918Z,24.39
2018-08-07T17:08:54.322Z,24.85
2018-08-07T17:11:57.628Z,24.54
2018-08-07T17:15:00.947Z,24.72
2018-08-07T17:18:04.186Z,25.03
2018-08-07T17:21:07.488Z,25.01
2018-08-07T17:24:11.941Z,25.20
2018-08-07T17:27:16.307Z,25.47
2018-08-07T17:30:21.606Z,25.31
2018-08-07T17:33:24.915Z,25.90
2018-08-07T17:36:28.095Z,26.05
2018-08-07T17:39:31.441Z,26.32
2018-08-07T17:42:34.640Z,26.62
2018-08-07T17:45:37.895Z,26.87
2018-08-07T17:48:41.939Z,27.05
2018-08-07T17:51:45.251Z,26.95
2018-08-07T17:54:48.459Z,27.21
2018-08-07T17:57:52.225Z,27.53
2018-08-07T18:00:55.484Z,27.63
2018-08-07T18:03:58.681Z,27.94
2018-08-07T18:07:02.313Z,27.88
2018-08-07T18:10:07.024Z,27.80
2018-08-07T18:13:11.050Z,28.04
2018-08-07T18:16:14.336Z,28.07
2018-08-07T18:19:17.634Z,28.15
2018-08-07T18:22:20.943Z,28.32
2018-08-07T18:25:24.217Z,28.25
2018-08-07T18:28:27.515Z,28.24
2018-08-07T18:31:42.001Z,28.36
2018-08-07T18:34:46.324Z,28.23
2018-08-07T18:37:49.799Z,28.32
2018-08-07T18:40:53.030Z,28.26
2018-08-07T18:43:56.316Z,28.25
2018-08-07T18:46:59.792Z,28.32
2018-08-07T18:50:09.564Z,28.15
2018-08-07T18:53:13.763Z,28.31
2018-08-07T18:56:17.059Z,28.30
2018-08-07T18:59:20.437Z,28.25
2018-08-07T19:02:23.672Z,28.11
2018-08-07T19:05:26.916Z,28.15
2018-08-07T19:08:32.184Z,28.13
2018-08-07T19:11:35.390Z,28.41
2018-08-07T19:14:38.677Z,29.53
2018-08-07T19:17:42.984Z,31.59
2018-08-07T19:20:46.321Z,32.82
2018-08-07T19:23:50.637Z,33.00
2018-08-07T19:26:53.914Z,34.49
2018-08-07T19:29:57.219Z,35.50
2018-08-07T19:33:00.540Z,35.68
2018-08-07T19:36:08.851Z,36.05
2018-08-07T19:39:13.479Z,36.02
2018-08-07T19:42:17.465Z,36.66
2018-08-07T19:45:21.128Z,37.13
2018-08-07T19:48:24.506Z,37.51
2018-08-07T19:51:27.787Z,37.52
2018-08-07T19:54:31.094Z,37.42
2018-08-07T19:57:34.364Z,37.90
2018-08-07T20:00:37.756Z,37.07
2018-08-07T20:03:41.918Z,37.86
2018-08-07T20:06:45.175Z,38.27
2018-08-07T20:09:48.654Z,38.06
2018-08-07T20:12:52.918Z,38.37
2018-08-07T20:15:56.195Z,37.91
2018-08-07T20:18:59.540Z,38.57
2018-08-07T20:22:04.480Z,39.20
2018-08-07T20:25:09.351Z,39.28
2018-08-07T20:28:12.676Z,39.05
2018-08-07T20:31:15.958Z,39.26
2018-08-07T20:34:19.257Z,38.98
2018-08-07T20:37:22.594Z,39.05
2018-08-07T20:40:26.986Z,39.61
2018-08-07T20:43:30.282Z,39.65
2018-08-07T20:46:33.583Z,39.58
2018-08-07T20:49:36.924Z,39.57
2018-08-07T20:52:41.407Z,39.78
2018-08-07T20:55:44.618Z,40.39
2018-08-07T20:58:47.879Z,40.55
2018-08-07T21:01:51.200Z,40.41
2018-08-07T21:04:54.483Z,40.25
2018-08-07T21:07:57.703Z,40.99
2018-08-07T21:11:01.253Z,41.07
2018-08-07T21:14:04.595Z,40.94
2018-08-07T21:17:08.809Z,41.31
2018-08-07T21:20:14.614Z,41.27
2018-08-07T21:23:18.879Z,41.33
2018-08-07T21:26:22.147Z,41.74
2018-08-07T21:29:25.359Z,41.72
2018-08-07T21:32:28.569Z,41.79
2018-08-07T21:35:31.841Z,41.86
2018-08-07T21:38:35.140Z,42.05
2018-08-07T21:41:38.693Z,41.98
2018-08-07T21:44:42.159Z,41.97
2018-08-07T21:47:45.519Z,42.13
2018-08-07T21:50:48.875Z,42.50
2018-08-07T21:53:52.603Z,42.73
2018-08-07T21:56:55.900Z,42.97
2018-08-07T21:59:59.153Z,42.97
2018-08-07T22:03:02.796Z,42.87
2018-08-07T22:06:06.312Z,42.87
2018-08-07T22:09:10.911Z,42.50
2018-08-07T22:12:14.339Z,42.76
2018-08-07T22:15:19.469Z,42.88
2018-08-07T22:18:22.782Z,42.65
2018-08-07T22:21:26.328Z,42.48
2018-08-07T22:24:29.599Z,42.51
2018-08-07T22:27:33.151Z,42.61
2018-08-07T22:30:36.426Z,42.67
2018-08-07T22:33:40.175Z,42.74
2018-08-07T22:36:43.454Z,42.76
2018-08-07T22:39:46.725Z,43.10
2018-08-07T22:42:49.990Z,42.83
2018-08-07T22:45:53.370Z,42.96
2018-08-07T22:48:56.618Z,43.24
2018-08-07T22:51:59.819Z,43.60
2018-08-07T22:55:03.006Z,43.82
2018-08-07T22:58:06.523Z,44.26
2018-08-07T23:01:10.519Z,44.34
2018-08-07T23:04:13.851Z,44.32
2018-08-07T23:07:17.121Z,44.45
2018-08-07T23:10:21.881Z,44.47
2018-08-07T23:13:25.179Z,44.40
2018-08-07T23:16:28.627Z,44.72
2018-08-07T23:19:31.903Z,45.02
2018-08-07T23:22:37.249Z,45.11
2018-08-07T23:25:40.612Z,44.96
2018-08-07T23:28:44.873Z,45.05
2018-08-07T23:31:48.128Z,45.37
2018-08-07T23:34:54.711Z,45.41
2018-08-07T23:37:57.982Z,45.45
2018-08-07T23:41:01.295Z,45.88
2018-08-07T23:44:04.599Z,46.02
2018-08-07T23:47:07.903Z,46.59
2018-08-07T23:50:13.063Z,46.64
2018-08-07T23:53:16.332Z,46.60
2018-08-07T23:56:19.503Z,47.08
2018-08-07T23:59:22.882Z,47.08
